createdAt,value
2019-01-14T00:00:29.256Z,25.9
2019-01-14T00:01:31.444Z,25.8
2019-01-14T00:02:33.856Z,25.7
2019-01-14T00:03:35.729Z,25.9
2019-01-14T00:04:37.876Z,25.8
2019-01-14T00:05:40.308Z,25.7
2019-01-14T00:06:42.737Z,25.8
2019-01-14T00:07:45.187Z,25.9
2019-01-14T00:08:47.614Z,25.8
2019-01-14T00:09:50.047Z,25.7
2019-01-14T00:10:52.210Z,25.8
2019-01-14T00:11:54.720Z,25.7
2019-01-14T00:12:56.865Z,25.7
2019-01-14T00:13:59.296Z,25.5
2019-01-14T00:15:01.733Z,25.8
2019-01-14T00:16:04.164Z,25.7
2019-01-14T00:17:06.584Z,25.9
2019-01-14T00:18:09.014Z,25.8
2019-01-14T00:19:10.895Z,25.8
2019-01-14T00:20:13.329Z,26
2019-01-14T00:21:15.758Z,25.8
2019-01-14T00:22:17.926Z,25.7
2019-01-14T00:23:20.060Z,25.7
2019-01-14T00:24:22.524Z,25.8
2019-01-14T00:25:24.686Z,25.8
2019-01-14T00:26:27.112Z,25.8
2019-01-14T00:27:29.247Z,25.7
2019-01-14T00:28:31.670Z,25.8
2019-01-14T00:29:33.818Z,25.9
2019-01-14T00:30:36.234Z,26
2019-01-14T00:31:38.390Z,25.7
2019-01-14T00:32:40.812Z,25.9
2019-01-14T00:33:43.236Z,25.8
2019-01-14T00:34:45.406Z,25.9
2019-01-14T00:35:47.550Z,26
2019-01-14T00:36:49.974Z,25.9
2019-01-14T00:37:52.120Z,25.9
2019-01-14T00:38:54.550Z,26
2019-01-14T00:39:56.993Z,25.8
2019-01-14T00:40:59.426Z,26
2019-01-14T00:42:01.638Z,25.9
2019-01-14T00:43:04.099Z,25.9
2019-01-14T00:44:06.526Z,26.1
2019-01-14T00:45:08.407Z,25.9
2019-01-14T00:46:10.825Z,25.9
2019-01-14T00:47:13.256Z,25.7
2019-01-14T00:48:15.684Z,26.1
2019-01-14T00:49:17.841Z,25.8
2019-01-14T00:50:19.996Z,26
2019-01-14T00:51:22.426Z,25.9
2019-01-14T00:52:24.852Z,25.9
2019-01-14T00:53:26.731Z,25.9
2019-01-14T00:54:28.613Z,25.9
2019-01-14T00:55:31.036Z,25.7
2019-01-14T00:56:32.672Z,25.9
2019-01-14T00:57:35.105Z,25.9
2019-01-14T00:58:37.266Z,26
2019-01-14T00:59:39.126Z,25.8
2019-01-14T01:00:41.551Z,26.1
2019-01-14T01:01:43.980Z,25.9
2019-01-14T01:02:46.430Z,26.1
2019-01-14T01:03:48.864Z,26
2019-01-14T01:04:51.290Z,26
2019-01-14T01:05:53.711Z,25.9
2019-01-14T01:06:56.137Z,26.1
2019-01-14T01:07:58.287Z,25.9
2019-01-14T01:09:00.180Z,26
2019-01-14T01:10:02.608Z,26
2019-01-14T01:11:04.478Z,26.2
2019-01-14T01:12:06.893Z,25.9
2019-01-14T01:13:09.355Z,26.1
2019-01-14T01:14:11.510Z,26.2
2019-01-14T01:15:13.952Z,26.4
2019-01-14T01:16:16.364Z,26.1
2019-01-14T01:17:18.788Z,26.1
2019-01-14T01:18:20.950Z,26.1
2019-01-14T01:19:23.078Z,26.3
2019-01-14T01:20:25.506Z,26.2
2019-01-14T01:21:27.665Z,26.4
2019-01-14T01:22:29.796Z,26.4
2019-01-14T01:23:31.937Z,26.3
2019-01-14T01:24:34.374Z,26.2
2019-01-14T01:25:36.793Z,26.4
2019-01-14T01:26:39.220Z,26.2
2019-01-14T01:27:41.650Z,26.4
2019-01-14T01:28:44.070Z,26.3
2019-01-14T01:29:46.490Z,26.2
2019-01-14T01:30:48.654Z,26.2
2019-01-14T01:31:50.800Z,26.4
2019-01-14T01:32:52.955Z,26.4
2019-01-14T01:33:54.820Z,26.2
2019-01-14T01:34:57.248Z,26.3
2019-01-14T01:35:59.394Z,26.3
2019-01-14T01:37:01.829Z,26.1
2019-01-14T01:38:04.009Z,26.5
2019-01-14T01:39:06.445Z,26.5
2019-01-14T01:40:08.918Z,26.4
2019-01-14T01:41:11.342Z,26.4
2019-01-14T01:42:13.493Z,26.5
2019-01-14T01:43:15.924Z,26.4
2019-01-14T01:44:18.076Z,26.5
2019-01-14T01:45:20.236Z,26.6
2019-01-14T01:46:22.132Z,26.6
2019-01-14T01:47:24.564Z,26.4
2019-01-14T01:48:26.714Z,26.4
2019-01-14T01:49:29.135Z,26.5
2019-01-14T01:50:31.566Z,26.5
2019-01-14T01:51:33.993Z,26.5
2019-01-14T01:52:36.154Z,26.5
2019-01-14T01:53:38.584Z,26.6
2019-01-14T01:54:40.766Z,26.5
2019-01-14T01:55:43.198Z,26.4
2019-01-14T01:56:45.620Z,26.5
2019-01-14T01:57:48.044Z,26.5
2019-01-14T01:58:49.638Z,26.6
2019-01-14T01:59:52.074Z,26.6
2019-01-14T02:00:54.506Z,26.6
2019-01-14T02:01:56.924Z,26.5
2019-01-14T02:02:59.346Z,26.6
2019-01-14T02:04:01.208Z,26.6
2019-01-14T02:05:03.629Z,26.5
2019-01-14T02:06:05.776Z,26.5
2019-01-14T02:07:08.214Z,26.5
2019-01-14T02:08:10.356Z,26.6
2019-01-14T02:09:12.782Z,26.7
2019-01-14T02:10:14.924Z,26.6
2019-01-14T02:11:17.350Z,26.7
2019-01-14T02:12:18.954Z,26.6
2019-01-14T02:13:21.374Z,26.9
2019-01-14T02:14:23.254Z,26.6
2019-01-14T02:15:25.684Z,26.6
2019-01-14T02:16:28.112Z,26.5
2019-01-14T02:17:30.269Z,26.7
2019-01-14T02:18:32.704Z,26.7
2019-01-14T02:19:34.872Z,26.7
2019-01-14T02:20:36.457Z,26.8
2019-01-14T02:21:38.880Z,26.6
2019-01-14T02:22:41.038Z,26.6
2019-01-14T02:23:42.887Z,26.7
2019-01-14T02:24:44.778Z,26.6
2019-01-14T02:25:47.202Z,26.6
2019-01-14T02:26:49.347Z,26.5
2019-01-14T02:27:51.774Z,26.6
2019-01-14T02:28:54.210Z,26.7
2019-01-14T02:29:56.639Z,26.8
2019-01-14T02:30:58.796Z,26.6
2019-01-14T02:32:01.226Z,26.5
2019-01-14T02:33:03.669Z,26.5
2019-01-14T02:34:05.824Z,26.5
2019-01-14T02:35:08.246Z,26.8
2019-01-14T02:36:10.407Z,26.5
2019-01-14T02:37:12.825Z,26.5
2019-01-14T02:38:14.993Z,26.7
2019-01-14T02:39:17.427Z,26.5
2019-01-14T02:40:19.356Z,26.8
2019-01-14T02:41:21.794Z,26.5
2019-01-14T02:42:24.214Z,26.5
2019-01-14T02:43:26.646Z,26.7
2019-01-14T02:44:29.077Z,26.8
2019-01-14T02:45:31.513Z,26.4
2019-01-14T02:46:33.944Z,26.7
2019-01-14T02:47:36.378Z,26.4
2019-01-14T02:48:38.545Z,26.6
2019-01-14T02:49:40.975Z,26.7
2019-01-14T02:50:43.398Z,26.7
2019-01-14T02:51:45.865Z,26.6
2019-01-14T02:52:48.293Z,26.4
2019-01-14T02:53:50.726Z,26.8
2019-01-14T02:54:53.142Z,26.6
2019-01-14T02:55:55.292Z,26.6
2019-01-14T02:56:57.456Z,26.6
2019-01-14T02:57:59.597Z,26.5
2019-01-14T02:59:02.020Z,26.6
2019-01-14T03:00:04.195Z,26.5
2019-01-14T03:01:06.634Z,26.7
2019-01-14T03:02:08.789Z,26.7
2019-01-14T03:03:10.929Z,26.5
2019-01-14T03:04:13.054Z,26.8
2019-01-14T03:05:15.475Z,26.6
2019-01-14T03:06:17.622Z,26.5
2019-01-14T03:07:19.762Z,26.7
2019-01-14T03:08:21.916Z,26.7
2019-01-14T03:09:24.338Z,26.4
2019-01-14T03:10:26.516Z,26.5
2019-01-14T03:11:28.682Z,26.5
2019-01-14T03:12:31.106Z,26.6
2019-01-14T03:13:33.268Z,26.5
2019-01-14T03:14:35.683Z,26.6
2019-01-14T03:15:38.123Z,26.9
2019-01-14T03:16:40.548Z,26.7
2019-01-14T03:17:42.984Z,26.6
2019-01-14T03:18:45.406Z,26.7
2019-01-14T03:19:47.825Z,26.8
2019-01-14T03:20:50.258Z,26.6
2019-01-14T03:21:52.764Z,26.6
2019-01-14T03:22:55.188Z,26.7
2019-01-14T03:23:57.612Z,26.7
2019-01-14T03:25:00.058Z,26.7
2019-01-14T03:26:02.652Z,26.6
2019-01-14T03:27:05.075Z,26.7
2019-01-14T03:28:07.206Z,26.6
2019-01-14T03:29:09.343Z,26.9
2019-01-14T03:30:11.770Z,26.8
2019-01-14T03:31:13.719Z,26.7
2019-01-14T03:32:15.864Z,26.7
2019-01-14T03:33:18.037Z,26.5
2019-01-14T03:34:20.192Z,26.8
2019-01-14T03:35:22.341Z,26.6
2019-01-14T03:36:24.504Z,26.8
2019-01-14T03:37:26.648Z,26.6
2019-01-14T03:38:28.793Z,26.6
2019-01-14T03:39:31.224Z,26.7
2019-01-14T03:40:33.651Z,26.6
2019-01-14T03:41:36.073Z,26.8
2019-01-14T03:42:38.266Z,26.7
2019-01-14T03:43:40.688Z,26.8
2019-01-14T03:44:43.114Z,26.7
2019-01-14T03:45:45.262Z,26.7
2019-01-14T03:46:47.694Z,26.6
2019-01-14T03:47:49.865Z,26.8
2019-01-14T03:48:51.998Z,26.7
2019-01-14T03:49:54.438Z,26.8
2019-01-14T03:50:56.021Z,26.7
2019-01-14T03:51:58.176Z,26.8
2019-01-14T03:53:00.606Z,26.8
2019-01-14T03:54:03.023Z,26.7
2019-01-14T03:55:05.184Z,26.7
2019-01-14T03:56:07.610Z,26.9
2019-01-14T03:57:09.787Z,26.8
2019-01-14T03:58:12.229Z,26.6
2019-01-14T03:59:14.656Z,26.6
2019-01-14T04:00:16.793Z,26.8
2019-01-14T04:01:18.975Z,26.8
2019-01-14T04:02:21.411Z,26.9
2019-01-14T04:03:23.838Z,26.8
2019-01-14T04:04:26.045Z,26.8
2019-01-14T04:05:27.939Z,26.7
2019-01-14T04:06:30.363Z,26.9
2019-01-14T04:07:32.793Z,26.7
2019-01-14T04:08:34.953Z,26.5
2019-01-14T04:09:37.387Z,26.6
2019-01-14T04:10:39.839Z,26.4
2019-01-14T04:11:42.256Z,26.6
2019-01-14T04:12:44.414Z,26.4
2019-01-14T04:13:46.845Z,26.2
2019-01-14T04:14:49.275Z,26.2
2019-01-14T04:15:51.703Z,26.4
2019-01-14T04:16:53.839Z,26.4
2019-01-14T04:17:56.262Z,26.4
2019-01-14T04:18:58.410Z,26.2
2019-01-14T04:20:00.574Z,26.6
2019-01-14T04:21:03.015Z,26.4
2019-01-14T04:22:05.440Z,26.3
2019-01-14T04:23:07.600Z,26.4
2019-01-14T04:24:10.026Z,26.3
2019-01-14T04:25:12.449Z,26.2
2019-01-14T04:26:14.606Z,26.4
2019-01-14T04:27:17.024Z,26.3
2019-01-14T04:28:19.184Z,26.2
2019-01-14T04:29:21.345Z,26.1
2019-01-14T04:30:23.490Z,26.4
2019-01-14T04:31:25.993Z,26.2
2019-01-14T04:32:28.139Z,26.2
2019-01-14T04:33:30.283Z,26.1
2019-01-14T04:34:32.715Z,26.2
2019-01-14T04:35:35.194Z,26.1
2019-01-14T04:36:37.054Z,26
2019-01-14T04:37:39.470Z,26.1
2019-01-14T04:38:41.893Z,26.1
2019-01-14T04:39:44.323Z,26.1
2019-01-14T04:40:46.746Z,26
2019-01-14T04:41:49.158Z,26.1
2019-01-14T04:42:51.314Z,25.8
2019-01-14T04:43:53.739Z,25.9
2019-01-14T04:44:55.884Z,26
2019-01-14T04:45:58.006Z,26.1
2019-01-14T04:47:00.429Z,26
2019-01-14T04:48:02.593Z,26
2019-01-14T04:49:04.757Z,26.1
2019-01-14T04:50:06.890Z,26
2019-01-14T04:51:09.303Z,26.1
2019-01-14T04:52:11.735Z,26.1
2019-01-14T04:53:13.889Z,26.1
2019-01-14T04:54:16.323Z,26.1
2019-01-14T04:55:18.478Z,25.9
2019-01-14T04:56:20.915Z,26
2019-01-14T04:57:23.059Z,26
2019-01-14T04:58:25.214Z,26
2019-01-14T04:59:27.638Z,26.2
2019-01-14T05:00:29.795Z,26
2019-01-14T05:01:31.935Z,26
2019-01-14T05:02:34.081Z,26
2019-01-14T05:03:36.502Z,26
2019-01-14T05:04:38.649Z,26.1
2019-01-14T05:05:41.079Z,25.9
2019-01-14T05:06:43.247Z,25.9
2019-01-14T05:07:45.674Z,25.9
2019-01-14T05:08:48.103Z,25.9
2019-01-14T05:09:50.531Z,26.2
2019-01-14T05:10:52.952Z,25.8
2019-01-14T05:11:55.096Z,26
2019-01-14T05:12:57.237Z,26
2019-01-14T05:13:59.106Z,25.7
2019-01-14T05:15:01.527Z,25.9
2019-01-14T05:16:03.663Z,25.9
2019-01-14T05:17:06.109Z,25.9
2019-01-14T05:18:08.249Z,26.1
2019-01-14T05:19:10.675Z,26.1
2019-01-14T05:20:13.111Z,25.9
2019-01-14T05:21:15.563Z,25.9
2019-01-14T05:22:17.434Z,25.9
2019-01-14T05:23:19.595Z,25.8
2019-01-14T05:24:21.755Z,26
2019-01-14T05:25:24.188Z,25.8
2019-01-14T05:26:26.315Z,26.1
2019-01-14T05:27:28.464Z,25.9
2019-01-14T05:28:30.595Z,25.9
2019-01-14T05:29:32.751Z,26.2
2019-01-14T05:30:34.921Z,25.9
2019-01-14T05:31:37.354Z,25.9
2019-01-14T05:32:39.494Z,25.9
2019-01-14T05:33:41.921Z,25.8
2019-01-14T05:34:44.075Z,25.8
2019-01-14T05:35:46.511Z,25.9
2019-01-14T05:36:48.949Z,25.9
2019-01-14T05:37:51.365Z,25.9
2019-01-14T05:38:53.786Z,25.9
2019-01-14T05:39:55.655Z,25.7
2019-01-14T05:40:57.814Z,25.8
2019-01-14T05:42:00.243Z,25.8
2019-01-14T05:43:02.667Z,25.9
2019-01-14T05:44:04.829Z,25.7
2019-01-14T05:45:06.962Z,25.8
2019-01-14T05:46:09.382Z,25.8
2019-01-14T05:47:11.278Z,25.7
2019-01-14T05:48:13.435Z,25.9
2019-01-14T05:49:15.859Z,25.7
2019-01-14T05:50:17.724Z,25.8
2019-01-14T05:51:20.141Z,25.6
2019-01-14T05:52:22.588Z,25.8
2019-01-14T05:53:24.795Z,25.7
2019-01-14T05:54:27.227Z,25.9
2019-01-14T05:55:29.685Z,25.9
2019-01-14T05:56:31.857Z,25.7
2019-01-14T05:57:34.297Z,25.8
2019-01-14T05:58:36.725Z,25.8
2019-01-14T05:59:38.583Z,25.9
2019-01-14T06:00:40.446Z,25.9
2019-01-14T06:01:42.615Z,25.9
2019-01-14T06:02:45.058Z,25.8
2019-01-14T06:03:47.225Z,25.8
2019-01-14T06:04:49.655Z,25.8
2019-01-14T06:05:52.093Z,25.9
2019-01-14T06:06:54.260Z,25.7
2019-01-14T06:07:56.680Z,25.7
2019-01-14T06:08:58.860Z,25.8
2019-01-14T06:10:01.324Z,25.9
2019-01-14T06:11:03.521Z,25.8
2019-01-14T06:12:05.682Z,25.9
2019-01-14T06:13:08.128Z,25.9
2019-01-14T06:14:10.297Z,25.7
2019-01-14T06:15:12.735Z,25.5
2019-01-14T06:16:14.882Z,25.7
2019-01-14T06:17:18.949Z,25.7
2019-01-14T06:18:20.823Z,25.8
2019-01-14T06:19:23.259Z,25.8
2019-01-14T06:20:24.915Z,25.6
2019-01-14T06:21:27.351Z,25.6
2019-01-14T06:22:29.821Z,25.5
2019-01-14T06:23:32.243Z,25.7
2019-01-14T06:24:34.669Z,25.7
2019-01-14T06:25:37.103Z,25.6
2019-01-14T06:26:39.535Z,25.6
2019-01-14T06:27:41.996Z,25.7
2019-01-14T06:28:44.143Z,25.8
2019-01-14T06:29:46.338Z,25.6
2019-01-14T06:30:48.801Z,25.7
2019-01-14T06:31:51.241Z,25.7
2019-01-14T06:32:53.396Z,25.9
2019-01-14T06:33:55.846Z,25.7
2019-01-14T06:34:58.277Z,25.7
2019-01-14T06:36:00.711Z,25.6
2019-01-14T06:37:03.155Z,25.7
2019-01-14T06:38:05.348Z,25.7
2019-01-14T06:39:07.783Z,25.9
2019-01-14T06:40:09.945Z,25.7
2019-01-14T06:41:12.389Z,25.7
2019-01-14T06:42:14.845Z,25.7
2019-01-14T06:43:17.009Z,25.6
2019-01-14T06:44:19.435Z,25.7
2019-01-14T06:45:21.581Z,25.9
2019-01-14T06:46:24.021Z,25.8
2019-01-14T06:47:26.485Z,25.7
2019-01-14T06:48:28.635Z,25.7
2019-01-14T06:49:32.545Z,25.7
2019-01-14T06:50:34.689Z,25.7
2019-01-14T06:51:37.120Z,25.7
2019-01-14T06:52:39.566Z,25.7
2019-01-14T06:53:41.437Z,25.4
2019-01-14T06:54:43.889Z,25.7
2019-01-14T06:55:46.116Z,25.6
2019-01-14T06:56:48.586Z,25.8
2019-01-14T06:57:51.042Z,25.6
2019-01-14T06:58:53.238Z,25.7
2019-01-14T06:59:55.666Z,25.6
2019-01-14T07:00:58.101Z,25.8
2019-01-14T07:02:00.532Z,25.6
2019-01-14T07:03:02.670Z,25.5
2019-01-14T07:04:05.115Z,25.5
2019-01-14T07:05:07.266Z,25.8
2019-01-14T07:06:09.154Z,25.5
2019-01-14T07:07:11.314Z,25.8
2019-01-14T07:08:13.742Z,25.7
2019-01-14T07:09:15.877Z,25.7
2019-01-14T07:10:18.302Z,25.6
2019-01-14T07:11:20.731Z,25.8
2019-01-14T07:12:22.903Z,25.6
2019-01-14T07:13:24.770Z,25.8
2019-01-14T07:14:27.223Z,25.7
2019-01-14T07:15:29.370Z,25.7
2019-01-14T07:16:31.824Z,25.7
2019-01-14T07:17:34.001Z,25.5
2019-01-14T07:18:36.417Z,25.7
2019-01-14T07:19:38.285Z,25.7
2019-01-14T07:20:40.722Z,25.7
2019-01-14T07:21:43.174Z,25.8
2019-01-14T07:22:45.591Z,25.6
2019-01-14T07:23:48.026Z,25.7
2019-01-14T07:24:50.459Z,25.7
2019-01-14T07:25:52.621Z,25.8
2019-01-14T07:26:55.049Z,25.7
2019-01-14T07:27:57.483Z,25.6
2019-01-14T07:28:59.923Z,25.6
2019-01-14T07:30:01.796Z,25.5
2019-01-14T07:31:04.220Z,25.8
2019-01-14T07:32:06.387Z,25.7
2019-01-14T07:33:08.544Z,25.7
2019-01-14T07:34:10.716Z,25.5
2019-01-14T07:35:13.144Z,25.4
2019-01-14T07:36:15.318Z,25.9
2019-01-14T07:37:17.478Z,25.5
2019-01-14T07:38:19.640Z,25.5
2019-01-14T07:39:22.077Z,25.7
2019-01-14T07:40:24.496Z,25.6
2019-01-14T07:41:26.565Z,25.7
2019-01-14T07:42:28.711Z,25.7
2019-01-14T07:43:31.138Z,25.4
2019-01-14T07:44:33.341Z,25.8
2019-01-14T07:45:35.497Z,25.4
2019-01-14T07:46:37.656Z,25.4
2019-01-14T07:47:40.082Z,25.6
2019-01-14T07:48:42.251Z,25.6
2019-01-14T07:49:44.428Z,25.5
2019-01-14T07:50:46.862Z,25.7
2019-01-14T07:51:49.021Z,25.6
2019-01-14T07:52:51.176Z,25.9
2019-01-14T07:53:53.603Z,25.7
2019-01-14T07:54:55.748Z,25.6
2019-01-14T07:55:58.194Z,25.5
2019-01-14T07:57:00.624Z,25.5
2019-01-14T07:58:03.045Z,25.7
2019-01-14T07:59:05.204Z,25.8
2019-01-14T08:00:07.640Z,25.7
2019-01-14T08:01:10.074Z,25.6
2019-01-14T08:02:12.227Z,25.7
2019-01-14T08:03:14.647Z,25.7
2019-01-14T08:04:16.264Z,25.8
2019-01-14T08:05:18.706Z,25.8
2019-01-14T08:06:20.858Z,25.5
2019-01-14T08:07:22.721Z,25.7
2019-01-14T08:08:24.877Z,25.9
2019-01-14T08:09:27.315Z,25.8
2019-01-14T08:10:29.184Z,25.7
2019-01-14T08:11:31.614Z,25.6
2019-01-14T08:12:34.033Z,25.7
2019-01-14T08:13:35.904Z,25.7
2019-01-14T08:14:37.787Z,25.7
2019-01-14T08:15:44.722Z,25.8
2019-01-14T08:16:47.165Z,25.5
2019-01-14T08:17:49.604Z,25.8
2019-01-14T08:18:52.069Z,25.4
2019-01-14T08:19:53.939Z,25.8
2019-01-14T08:20:55.822Z,25.6
2019-01-14T08:21:57.985Z,25.6
2019-01-14T08:23:00.414Z,25.7
2019-01-14T08:24:02.590Z,25.6
2019-01-14T08:25:05.015Z,25.7
2019-01-14T08:26:07.454Z,25.5
2019-01-14T08:27:09.623Z,25.8
2019-01-14T08:28:12.057Z,25.6
2019-01-14T08:29:14.482Z,25.6
2019-01-14T08:30:16.913Z,25.5
2019-01-14T08:31:18.776Z,25.7
2019-01-14T08:32:20.938Z,25.7
2019-01-14T08:33:23.094Z,25.4
2019-01-14T08:34:24.985Z,25.7
2019-01-14T08:35:27.134Z,25.6
2019-01-14T08:36:29.556Z,25.5
2019-01-14T08:37:31.459Z,25.3
2019-01-14T08:38:33.619Z,25.5
2019-01-14T08:39:35.784Z,25.3
2019-01-14T08:40:37.659Z,25.6
2019-01-14T08:41:39.800Z,25.6
2019-01-14T08:42:42.224Z,25.6
2019-01-14T08:43:44.643Z,25.4
2019-01-14T08:44:46.507Z,25.5
2019-01-14T08:45:48.944Z,25.6
2019-01-14T08:46:51.360Z,25.7
2019-01-14T08:47:53.534Z,25.5
2019-01-14T08:48:55.396Z,25.5
2019-01-14T08:49:57.544Z,25.6
2019-01-14T08:50:59.677Z,25.5
2019-01-14T08:52:02.111Z,25.5
2019-01-14T08:53:04.572Z,25.5
2019-01-14T08:54:06.991Z,25.7
2019-01-14T08:55:09.424Z,25.7
2019-01-14T08:56:11.865Z,25.9
2019-01-14T08:57:14.293Z,25.4
2019-01-14T08:58:16.730Z,25.6
2019-01-14T08:59:19.168Z,25.8
2019-01-14T09:00:21.588Z,25.6
2019-01-14T09:01:24.026Z,25.4
2019-01-14T09:02:26.187Z,25.7
2019-01-14T09:03:28.344Z,25.6
2019-01-14T09:04:32.432Z,25.6
2019-01-14T09:05:34.223Z,25.7
2019-01-14T09:06:36.651Z,25.5
2019-01-14T09:07:39.099Z,25.6
2019-01-14T09:08:41.242Z,25.6
2019-01-14T09:09:43.372Z,25.7
2019-01-14T09:10:45.801Z,25.8
2019-01-14T09:11:47.976Z,25.7
2019-01-14T09:12:50.115Z,25.7
2019-01-14T09:13:52.274Z,25.6
2019-01-14T09:14:54.434Z,25.4
2019-01-14T09:15:56.865Z,25.9
2019-01-14T09:16:59.034Z,25.6
2019-01-14T09:18:02.738Z,25.7
2019-01-14T09:19:05.464Z,25.7
2019-01-14T09:20:07.931Z,25.8
2019-01-14T09:21:10.070Z,25.7
2019-01-14T09:22:13.535Z,25.5
2019-01-14T09:23:15.964Z,25.4
2019-01-14T09:24:17.877Z,25.6
2019-01-14T09:25:20.298Z,25.7
2019-01-14T09:26:22.428Z,25.7
2019-01-14T09:27:24.857Z,25.4
2019-01-14T09:28:27.017Z,25.7
2019-01-14T09:29:29.165Z,25.7
2019-01-14T09:30:31.348Z,25.3
2019-01-14T09:31:33.786Z,25.7
2019-01-14T09:32:36.215Z,25.5
2019-01-14T09:33:38.096Z,25.7
2019-01-14T09:34:39.976Z,25.9
2019-01-14T09:35:41.911Z,25.5
2019-01-14T09:36:43.769Z,25.5
2019-01-14T09:37:46.206Z,25.6
2019-01-14T09:38:48.637Z,25.6
2019-01-14T09:39:50.788Z,25.6
2019-01-14T09:40:53.224Z,25.5
2019-01-14T09:41:55.657Z,25.7
2019-01-14T09:42:57.801Z,25.6
2019-01-14T09:43:59.681Z,25.7
2019-01-14T09:45:01.821Z,25.4
2019-01-14T09:46:03.695Z,25.8
2019-01-14T09:47:06.129Z,25.5
2019-01-14T09:48:08.554Z,25.7
2019-01-14T09:49:10.986Z,25.3
2019-01-14T09:50:13.405Z,25.6
2019-01-14T09:51:15.850Z,25.7
2019-01-14T09:52:18.286Z,25.6
2019-01-14T09:53:20.161Z,25.6
2019-01-14T09:54:22.590Z,25.4
2019-01-14T09:55:24.757Z,25.8
2019-01-14T09:56:27.190Z,25.7
2019-01-14T09:57:29.623Z,25.7
2019-01-14T09:58:32.052Z,25.6
2019-01-14T09:59:33.671Z,25.6
2019-01-14T10:00:35.808Z,25.7
2019-01-14T10:01:38.249Z,25.3
2019-01-14T10:02:40.388Z,25.8
2019-01-14T10:03:42.542Z,25.8
2019-01-14T10:04:44.997Z,25.6
2019-01-14T10:05:47.178Z,25.4
2019-01-14T10:06:49.615Z,25.4
2019-01-14T10:07:51.496Z,25.3
2019-01-14T10:08:53.914Z,25.8
2019-01-14T10:09:56.064Z,25.5
2019-01-14T10:10:58.494Z,25.7
2019-01-14T10:12:00.970Z,25.5
2019-01-14T10:13:03.426Z,25.6
2019-01-14T10:14:05.855Z,25.6
2019-01-14T10:15:08.275Z,25.5
2019-01-14T10:16:10.035Z,25.8
2019-01-14T10:17:12.198Z,25.6
2019-01-14T10:18:14.379Z,25.5
2019-01-14T10:19:16.264Z,25.6
2019-01-14T10:20:18.697Z,25.8
2019-01-14T10:21:20.904Z,25.7
2019-01-14T10:22:23.337Z,25.6
2019-01-14T10:23:25.762Z,25.5
2019-01-14T10:24:27.914Z,25.6
2019-01-14T10:25:30.344Z,25.8
2019-01-14T10:26:32.766Z,25.8
2019-01-14T10:27:34.911Z,25.6
2019-01-14T10:28:37.079Z,25.5
2019-01-14T10:29:39.522Z,25.6
2019-01-14T10:30:41.667Z,25.6
2019-01-14T10:31:43.537Z,25.7
2019-01-14T10:32:45.954Z,25.7
2019-01-14T10:33:48.395Z,25.6
2019-01-14T10:34:50.833Z,25.7
2019-01-14T10:35:53.265Z,25.6
2019-01-14T10:36:55.407Z,25.3
2019-01-14T10:37:57.569Z,25.6
2019-01-14T10:39:00.000Z,25.5
2019-01-14T10:40:02.449Z,25.5
2019-01-14T10:41:04.599Z,25.7
2019-01-14T10:42:06.480Z,25.6
2019-01-14T10:43:08.650Z,25.6
2019-01-14T10:44:11.083Z,25.4
2019-01-14T10:45:13.248Z,25.7
2019-01-14T10:46:15.675Z,25.7
2019-01-14T10:47:17.844Z,25.4
2019-01-14T10:48:19.699Z,25.7
2019-01-14T10:49:21.862Z,25.7
2019-01-14T10:50:24.301Z,25.7
2019-01-14T10:51:26.457Z,25.8
2019-01-14T10:52:28.615Z,25.8
2019-01-14T10:53:31.050Z,25.5
2019-01-14T10:54:33.467Z,25.5
2019-01-14T10:55:35.631Z,25.7
2019-01-14T10:56:38.046Z,25.7
2019-01-14T10:57:43.984Z,25.8
2019-01-14T10:58:46.422Z,25.5
2019-01-14T10:59:48.845Z,25.9
2019-01-14T11:00:51.285Z,25.6
2019-01-14T11:01:53.165Z,25.9
2019-01-14T11:02:55.043Z,25.3
2019-01-14T11:03:56.927Z,25.4
2019-01-14T11:04:59.351Z,25.6
2019-01-14T11:06:01.504Z,25.4
2019-01-14T11:07:03.668Z,25.5
2019-01-14T11:08:05.532Z,25.7
2019-01-14T11:09:07.964Z,25.5
2019-01-14T11:10:09.883Z,25.6
2019-01-14T11:11:12.295Z,25.7
2019-01-14T11:12:14.463Z,25.7
2019-01-14T11:13:16.895Z,25.2
2019-01-14T11:14:19.341Z,25.3
2019-01-14T11:15:21.772Z,25.6
2019-01-14T11:16:23.943Z,25.6
2019-01-14T11:17:26.375Z,25.5
2019-01-14T11:18:28.801Z,25.4
2019-01-14T11:19:31.243Z,25.5
2019-01-14T11:20:33.388Z,25.8
2019-01-14T11:21:35.833Z,25.8
2019-01-14T11:22:38.282Z,25.7
2019-01-14T11:23:40.432Z,25.3
2019-01-14T11:24:42.868Z,25.7
2019-01-14T11:25:45.291Z,25.7
2019-01-14T11:26:47.728Z,25.6
2019-01-14T11:27:49.881Z,25.7
2019-01-14T11:28:52.305Z,25.2
2019-01-14T11:29:54.733Z,25.4
2019-01-14T11:30:57.165Z,25.3
2019-01-14T11:31:59.629Z,25.5
2019-01-14T11:33:01.479Z,25.7
2019-01-14T11:34:03.944Z,25.6
2019-01-14T11:35:06.085Z,25.5
2019-01-14T11:36:08.522Z,25.7
2019-01-14T11:37:10.952Z,25.4
2019-01-14T11:38:13.108Z,25.3
2019-01-14T11:39:15.275Z,25.3
2019-01-14T11:40:17.429Z,25.3
2019-01-14T11:41:19.856Z,25.5
2019-01-14T11:42:22.288Z,25.6
2019-01-14T11:43:24.721Z,25.8
2019-01-14T11:44:27.145Z,25.5
2019-01-14T11:45:29.578Z,25.4
2019-01-14T11:46:31.996Z,25.3
2019-01-14T11:47:34.423Z,25.6
2019-01-14T11:48:36.855Z,25.7
2019-01-14T11:49:39.296Z,25.4
2019-01-14T11:50:41.433Z,25.4
2019-01-14T11:51:43.863Z,25.5
2019-01-14T11:52:45.737Z,25.2
2019-01-14T11:53:47.884Z,25.2
2019-01-14T11:54:50.327Z,25.4
2019-01-14T11:55:52.189Z,25.7
2019-01-14T11:56:54.630Z,25.7
2019-01-14T11:57:56.549Z,25.8
2019-01-14T11:58:58.689Z,25.4
2019-01-14T12:00:01.111Z,25.4
2019-01-14T12:01:03.550Z,25.7
2019-01-14T12:02:05.979Z,25.3
2019-01-14T12:03:08.683Z,25.7
2019-01-14T12:04:10.951Z,25.4
2019-01-14T12:05:13.395Z,25.5
2019-01-14T12:06:15.866Z,25.8
2019-01-14T12:07:18.034Z,25.3
2019-01-14T12:08:21.070Z,25.6
2019-01-14T12:09:23.295Z,25.3
2019-01-14T12:10:25.731Z,25.6
2019-01-14T12:11:28.158Z,25.4
2019-01-14T12:12:30.579Z,25.7
2019-01-14T12:13:32.997Z,25.7
2019-01-14T12:14:35.214Z,25.5
2019-01-14T12:15:37.659Z,25.7
2019-01-14T12:16:39.855Z,25.3
2019-01-14T12:17:42.017Z,25.4
2019-01-14T12:18:44.447Z,25.6
2019-01-14T12:19:46.867Z,25.5
2019-01-14T12:20:49.291Z,25.8
2019-01-14T12:21:51.436Z,25.7
2019-01-14T12:22:53.592Z,25.6
2019-01-14T12:23:56.014Z,25.6
2019-01-14T12:24:58.162Z,25.5
2019-01-14T12:26:00.320Z,25.7
2019-01-14T12:27:02.479Z,25.4
2019-01-14T12:28:04.918Z,25.3
2019-01-14T12:29:07.342Z,25.4
2019-01-14T12:30:09.774Z,25.6
2019-01-14T12:31:12.208Z,25.5
2019-01-14T12:32:14.371Z,25.7
2019-01-14T12:33:16.280Z,25.3
2019-01-14T12:34:18.747Z,25.5
2019-01-14T12:35:20.871Z,25.7
2019-01-14T12:36:23.308Z,25.1
2019-01-14T12:37:25.465Z,25.4
2019-01-14T12:38:27.625Z,25.6
2019-01-14T12:39:30.066Z,25.6
2019-01-14T12:40:32.483Z,25.3
2019-01-14T12:41:34.909Z,25.4
2019-01-14T12:42:37.060Z,25.6
2019-01-14T12:43:39.260Z,25.5
2019-01-14T12:44:41.403Z,25.5
2019-01-14T12:45:43.834Z,25.6
2019-01-14T12:46:46.003Z,25.3
2019-01-14T12:47:48.168Z,25.5
2019-01-14T12:48:50.626Z,25.7
2019-01-14T12:49:52.794Z,25.6
2019-01-14T12:50:54.960Z,25.7
2019-01-14T12:51:57.397Z,25.6
2019-01-14T12:52:59.873Z,25.3
2019-01-14T12:54:02.294Z,25.4
2019-01-14T12:55:04.194Z,25.5
2019-01-14T12:56:06.627Z,25.7
2019-01-14T12:57:09.065Z,25.6
2019-01-14T12:58:11.504Z,25.8
2019-01-14T12:59:13.658Z,25.4
2019-01-14T13:00:15.816Z,25.4
2019-01-14T13:01:17.696Z,25.5
2019-01-14T13:02:19.866Z,25.6
2019-01-14T13:03:22.297Z,25.7
2019-01-14T13:04:23.610Z,25.4
2019-01-14T13:05:26.032Z,25.2
2019-01-14T13:06:28.171Z,25.7
2019-01-14T13:07:30.594Z,25.5
2019-01-14T13:08:33.039Z,25.7
2019-01-14T13:09:35.473Z,25.5
2019-01-14T13:10:38.794Z,25.8
2019-01-14T13:11:41.214Z,25.4
2019-01-14T13:12:43.340Z,25.5
2019-01-14T13:13:45.502Z,25.6
2019-01-14T13:14:47.932Z,25.3
2019-01-14T13:15:50.084Z,25.5
2019-01-14T13:16:52.252Z,25.3
2019-01-14T13:17:54.397Z,25.6
2019-01-14T13:18:56.829Z,25.3
2019-01-14T13:19:59.003Z,25.5
2019-01-14T13:21:01.428Z,25.3
2019-01-14T13:22:03.563Z,25.3
2019-01-14T13:23:05.724Z,25.6
2019-01-14T13:24:07.880Z,25.4
2019-01-14T13:25:10.312Z,25.6
2019-01-14T13:26:12.485Z,25.3
2019-01-14T13:27:14.650Z,25.5
2019-01-14T13:28:17.078Z,25.6
2019-01-14T13:29:19.504Z,25.5
2019-01-14T13:30:21.668Z,25.7
2019-01-14T13:31:23.827Z,25.7
2019-01-14T13:32:26.279Z,25.5
2019-01-14T13:33:28.712Z,25.2
2019-01-14T13:34:30.599Z,25.3
2019-01-14T13:35:32.471Z,25.3
2019-01-14T13:36:34.398Z,25.6
2019-01-14T13:37:36.830Z,25.7
2019-01-14T13:38:39.276Z,25.5
2019-01-14T13:39:41.713Z,25.6
2019-01-14T13:40:43.883Z,25.7
2019-01-14T13:41:46.044Z,25.8
2019-01-14T13:42:48.474Z,25.4
2019-01-14T13:43:50.650Z,25.4
2019-01-14T13:44:51.978Z,25.6
2019-01-14T13:45:53.860Z,25.6
2019-01-14T13:46:56.027Z,25.5
2019-01-14T13:47:58.168Z,25.3
2019-01-14T13:49:00.596Z,25.3
2019-01-14T13:50:03.025Z,25.4
2019-01-14T13:51:05.455Z,25.5